Terminal Aerodrome Forecast
Issued by NWS

Home | Current Version | Previous Version | Text Only | Print | Product List | Glossary On
Versions: 1 2 3 4 5 6 7 8 9 10 11 12 13 14 15 16 17 18 19 20
000
FTUS46 KSEW 251431 AAA
TAFBFI
TAF AMD
KBFI 251431Z 2515/2612 15006KT P6SM SCT050 OVC090
      TEMPO 2515/2518 -RA
     FM251800 22005KT P6SM VCSH SCT030 BKN050 OVC070
     FM252100 23006KT P6SM VCSH BKN030 OVC050
     FM260300 20004KT P6SM SCT030 OVC050=

USA.gov is the U.S. government's official web portal to all federal, state and local government web resources and services.